West Bradenton, Florida
Current Conditions -  °F | °C
As of 2:53 PM on Friday 19 Dec 2014 (Local Time) from KSRQ Reporting Station
Clear Clear  
Wind Chill: 69°   Ceiling: Unl
Heat Index: 69°   Visibility: 10mi
Dew Point: 54°   Wind: 9mph
Humidity: 58%   Direction: 270°W
Pressure: 30.03"   Gusts: NA
Location:  27.4818°N, 82.584°W
Report Text: KSRQ 191953Z AUTO 27008KT 10SM CLR 21/12 A3003 RMK AO2 SLP167 T02060122
Loading
Personal Weather Stations






























Interactive Weather Map New forecast layout! Learn more

10-Day Weather Forecast

Advertisements
Track Severe Weather on mobile